Terminal Aerodrome Forecast
Issued by NWS Shreveport, LA

Home | Current Version | Previous Version | Text Only | Print | Product List | Glossary On
Versions: 1 2 3 4 5 6 7 8 9 10 11 12 13 14 15
000
FTUS44 KSHV 220520
TAFMLU
TAF
KMLU 220520Z 2206/2306 00000KT P6SM SCT250
      TEMPO 2209/2213 3SM BR
     FM221300 VRB03KT P6SM SKC
      TEMPO 2216/2218 BKN030
     FM221800 07004KT P6SM SCT040
     FM230000 05003KT P6SM SCT050=

USA.gov is the U.S. government's official web portal to all federal, state and local government web resources and services.